createdAt,value
2023-03-05T00:00:03.187Z,12.88
2023-03-05T00:02:45.837Z,11.00
2023-03-05T00:05:18.534Z,12.25
2023-03-05T00:07:50.904Z,12.23
2023-03-05T00:10:23.281Z,12.07
2023-03-05T00:12:56.295Z,10.68
2023-03-05T00:15:28.794Z,12.43
2023-03-05T00:18:01.514Z,14.80
2023-03-05T00:20:40.971Z,14.90
2023-03-05T00:23:13.574Z,12.48
2023-03-05T00:25:46.030Z,13.00
2023-03-05T00:28:19.310Z,13.13
2023-03-05T00:30:51.710Z,14.43
2023-03-05T00:33:24.160Z,14.05
2023-03-05T00:35:57.973Z,13.63
2023-03-05T00:38:30.395Z,14.05
2023-03-05T00:41:02.866Z,11.35
2023-03-05T00:43:35.898Z,17.38
2023-03-05T00:46:08.349Z,19.48
2023-03-05T00:48:40.717Z,14.38
2023-03-05T00:51:13.148Z,12.50
2023-03-05T00:53:45.557Z,12.43
2023-03-05T00:56:17.975Z,10.95
2023-03-05T00:58:52.555Z,12.35
2023-03-05T01:01:25.035Z,11.20
2023-03-05T01:03:58.901Z,10.80
2023-03-05T01:06:31.274Z,12.18
2023-03-05T01:09:03.770Z,15.50
2023-03-05T01:11:36.206Z,13.75
2023-03-05T01:14:09.485Z,10.85
2023-03-05T01:16:41.933Z,11.73
2023-03-05T01:19:15.730Z,11.10
2023-03-05T01:21:48.521Z,11.68
2023-03-05T01:24:21.894Z,13.40
2023-03-05T01:26:54.215Z,11.35
2023-03-05T01:29:27.539Z,13.52
2023-03-05T01:32:01.597Z,10.98
2023-03-05T01:34:35.637Z,11.15
2023-03-05T01:37:08.054Z,13.05
2023-03-05T01:39:40.468Z,12.43
2023-03-05T01:42:12.875Z,11.23
2023-03-05T01:45:01.058Z,12.50
2023-03-05T01:47:33.495Z,11.23
2023-03-05T01:50:09.080Z,11.95
2023-03-05T01:52:46.410Z,12.48
2023-03-05T01:55:22.595Z,10.70
2023-03-05T01:57:59.895Z,12.27
2023-03-05T02:00:37.410Z,12.15
2023-03-05T02:03:12.163Z,12.18
2023-03-05T02:05:44.501Z,13.60
2023-03-05T02:08:19.078Z,12.60
2023-03-05T02:10:54.555Z,11.15
2023-03-05T02:13:32.487Z,11.85
2023-03-05T02:16:07.052Z,10.38
2023-03-05T02:18:39.419Z,11.80
2023-03-05T02:21:13.325Z,11.30
2023-03-05T02:23:46.546Z,12.63
2023-03-05T02:26:18.823Z,13.13
2023-03-05T02:28:56.664Z,12.43
2023-03-05T02:31:30.431Z,11.75
2023-03-05T02:34:03.139Z,13.30
2023-03-05T02:36:36.164Z,12.23
2023-03-05T02:39:09.364Z,11.70
2023-03-05T02:41:42.097Z,12.35
2023-03-05T02:44:14.564Z,13.32
2023-03-05T02:46:47.117Z,14.13
2023-03-05T02:49:19.412Z,15.15
2023-03-05T02:51:52.508Z,13.15
2023-03-05T02:54:25.065Z,15.82
2023-03-05T02:56:57.370Z,13.02
2023-03-05T02:59:30.001Z,12.45
2023-03-05T03:02:02.779Z,13.93
2023-03-05T03:04:35.386Z,12.45
2023-03-05T03:07:08.419Z,10.82
2023-03-05T03:09:42.100Z,13.20
2023-03-05T03:12:14.762Z,9.20
2023-03-05T03:14:47.113Z,13.80
2023-03-05T03:17:19.825Z,14.50
2023-03-05T03:19:52.389Z,12.13
2023-03-05T03:22:25.480Z,14.70
2023-03-05T03:24:57.899Z,14.07
2023-03-05T03:27:30.466Z,11.90
2023-03-05T03:30:04.193Z,12.48
2023-03-05T03:32:37.020Z,12.90
2023-03-05T03:35:10.515Z,11.77
2023-03-05T03:37:43.721Z,11.25
2023-03-05T03:40:16.483Z,11.10
2023-03-05T03:42:51.402Z,10.57
2023-03-05T03:45:23.967Z,9.48
2023-03-05T03:47:56.449Z,9.68
2023-03-05T03:50:28.868Z,9.25
2023-03-05T03:53:02.177Z,9.68
2023-03-05T03:55:35.254Z,7.63
2023-03-05T03:58:07.709Z,7.43
2023-03-05T04:00:40.935Z,7.13
2023-03-05T04:03:13.245Z,8.02
2023-03-05T04:05:45.654Z,7.93
2023-03-05T04:08:18.828Z,7.57
2023-03-05T04:10:51.378Z,8.32
2023-03-05T04:13:23.800Z,6.80
2023-03-05T04:15:56.616Z,6.72
2023-03-05T04:18:31.163Z,8.50
2023-03-05T04:21:05.171Z,6.95
2023-03-05T04:23:38.336Z,7.25
2023-03-05T04:26:10.995Z,8.57
2023-03-05T04:28:43.412Z,11.38
2023-03-05T04:31:16.590Z,6.28
2023-03-05T04:33:48.896Z,10.35
2023-03-05T04:36:21.411Z,9.25
2023-03-05T04:38:54.470Z,7.82
2023-03-05T04:41:26.931Z,8.32
2023-03-05T04:43:59.310Z,7.47
2023-03-05T04:46:31.702Z,7.28
2023-03-05T04:49:04.083Z,8.40
2023-03-05T04:51:36.496Z,7.78
2023-03-05T04:54:09.418Z,7.45
2023-03-05T04:56:41.727Z,7.50
2023-03-05T04:59:14.010Z,6.78
2023-03-05T05:01:46.274Z,7.95
2023-03-05T05:04:18.699Z,8.18
2023-03-05T05:06:54.189Z,7.95
2023-03-05T05:09:27.339Z,10.85
2023-03-05T05:11:59.647Z,9.65
2023-03-05T05:14:33.600Z,7.57
2023-03-05T05:17:06.006Z,7.60
2023-03-05T05:19:38.388Z,8.57
2023-03-05T05:22:10.738Z,7.80
2023-03-05T05:24:43.856Z,7.30
2023-03-05T05:27:16.182Z,8.05
2023-03-05T05:29:49.722Z,9.85
2023-03-05T05:32:23.607Z,7.10
2023-03-05T05:34:56.503Z,6.15
2023-03-05T05:37:29.579Z,6.55
2023-03-05T05:40:05.221Z,6.03
2023-03-05T05:42:37.883Z,7.18
2023-03-05T05:45:10.925Z,6.78
2023-03-05T05:47:43.198Z,7.70
2023-03-05T05:50:15.947Z,6.68
2023-03-05T05:52:48.377Z,9.32
2023-03-05T05:55:21.502Z,7.95
2023-03-05T05:57:54.088Z,8.35
2023-03-05T06:00:26.506Z,5.15
2023-03-05T06:02:58.947Z,6.97
2023-03-05T06:05:31.434Z,16.52
2023-03-05T06:08:04.169Z,9.30
2023-03-05T06:10:37.108Z,7.30
2023-03-05T06:13:09.476Z,11.18
2023-03-05T06:15:41.940Z,11.70
2023-03-05T06:18:14.255Z,7.15
2023-03-05T06:20:54.074Z,7.32
2023-03-05T06:23:27.345Z,6.72
2023-03-05T06:26:02.187Z,5.05
2023-03-05T06:28:35.433Z,5.68
2023-03-05T06:31:10.388Z,6.18
2023-03-05T06:33:43.449Z,5.93
2023-03-05T06:36:18.557Z,5.95
2023-03-05T06:38:53.193Z,6.03
2023-03-05T06:41:27.984Z,5.25
2023-03-05T06:44:02.501Z,5.50
2023-03-05T06:46:36.924Z,5.25
2023-03-05T06:49:11.023Z,4.80
2023-03-05T06:51:43.338Z,4.60
2023-03-05T06:54:17.210Z,6.13
2023-03-05T06:56:50.450Z,5.03
2023-03-05T06:59:22.975Z,9.55
2023-03-05T07:01:55.366Z,6.10
2023-03-05T07:04:27.680Z,5.22
2023-03-05T07:07:00.413Z,7.95
2023-03-05T07:09:32.685Z,11.20
2023-03-05T07:12:06.844Z,5.97
2023-03-05T07:14:39.395Z,7.45
2023-03-05T07:17:14.563Z,8.07
2023-03-05T07:19:46.888Z,7.40
2023-03-05T07:22:19.271Z,7.55
2023-03-05T07:24:51.528Z,6.10
2023-03-05T07:27:25.052Z,7.25
2023-03-05T07:29:57.468Z,5.80
2023-03-05T07:32:29.939Z,5.03
2023-03-05T07:35:02.619Z,5.40
2023-03-05T07:37:35.001Z,5.95
2023-03-05T07:40:08.604Z,5.78
2023-03-05T07:42:41.762Z,8.25
2023-03-05T07:45:20.776Z,7.88
2023-03-05T07:47:53.085Z,14.10
2023-03-05T07:50:25.553Z,7.85
2023-03-05T07:52:57.867Z,6.95
2023-03-05T07:55:30.188Z,8.57
2023-03-05T07:58:03.199Z,7.38
2023-03-05T08:00:35.518Z,8.57
2023-03-05T08:03:07.875Z,10.13
2023-03-05T08:05:40.960Z,7.95
2023-03-05T08:08:13.249Z,7.15
2023-03-05T08:10:45.817Z,6.55
2023-03-05T08:13:18.809Z,6.93
2023-03-05T08:15:51.169Z,7.38
2023-03-05T08:18:23.535Z,7.57
2023-03-05T08:20:55.869Z,6.53
2023-03-05T08:23:28.498Z,10.65
2023-03-05T08:26:00.918Z,7.75
2023-03-05T08:28:34.498Z,8.35
2023-03-05T08:31:09.765Z,7.00
2023-03-05T08:33:42.358Z,8.25
2023-03-05T08:36:14.622Z,8.73
2023-03-05T08:38:47.872Z,6.72
2023-03-05T08:41:20.321Z,7.38
2023-03-05T08:43:53.310Z,7.97
2023-03-05T08:46:25.804Z,9.05
2023-03-05T08:48:58.356Z,9.48
2023-03-05T08:51:30.715Z,7.53
2023-03-05T08:54:06.206Z,7.10
2023-03-05T08:56:38.513Z,10.82
2023-03-05T08:59:13.321Z,9.93
2023-03-05T09:01:46.053Z,10.60
2023-03-05T09:04:18.498Z,8.68
2023-03-05T09:06:50.819Z,8.88
2023-03-05T09:09:24.086Z,9.45
2023-03-05T09:11:57.852Z,7.78
2023-03-05T09:14:30.825Z,7.70
2023-03-05T09:17:03.147Z,8.23
2023-03-05T09:19:35.496Z,7.65
2023-03-05T09:22:07.843Z,8.73
2023-03-05T09:24:40.161Z,6.90
2023-03-05T09:27:12.464Z,8.13
2023-03-05T09:29:45.682Z,9.02
2023-03-05T09:32:18.124Z,11.93
2023-03-05T09:34:50.479Z,9.02
2023-03-05T09:37:23.013Z,6.97
2023-03-05T09:39:55.495Z,6.85
2023-03-05T09:42:53.852Z,7.75
2023-03-05T09:45:30.371Z,8.73
2023-03-05T09:48:15.256Z,7.15
2023-03-05T09:50:51.157Z,6.82
2023-03-05T09:53:35.666Z,10.00
2023-03-05T09:56:12.018Z,9.15
2023-03-05T09:58:48.159Z,12.13
2023-03-05T10:01:23.581Z,13.50
2023-03-05T10:03:59.390Z,10.32
2023-03-05T10:06:33.938Z,8.48
2023-03-05T10:09:12.674Z,7.30
2023-03-05T10:11:50.787Z,7.80
2023-03-05T10:14:27.614Z,12.40
2023-03-05T10:17:19.000Z,8.40
2023-03-05T10:20:15.118Z,7.10
2023-03-05T10:23:03.453Z,7.72
2023-03-05T10:25:52.651Z,7.25
2023-03-05T10:28:33.589Z,7.30
2023-03-05T10:31:36.638Z,6.78
2023-03-05T10:34:27.271Z,7.80
2023-03-05T10:37:17.964Z,7.82
2023-03-05T10:40:00.329Z,11.98
2023-03-05T10:42:40.489Z,13.85
2023-03-05T10:47:52.193Z,8.25
2023-03-05T10:50:28.526Z,9.48
2023-03-05T10:53:13.371Z,7.82
2023-03-05T10:55:45.669Z,7.10
2023-03-05T10:58:18.074Z,6.35
2023-03-05T11:01:02.080Z,7.82
2023-03-05T11:03:47.781Z,6.85
2023-03-05T11:06:29.605Z,6.15
2023-03-05T11:09:19.837Z,9.85
2023-03-05T11:12:10.856Z,11.90
2023-03-05T11:14:45.164Z,10.60
2023-03-05T11:17:30.842Z,8.05
2023-03-05T11:20:34.222Z,10.50
2023-03-05T11:23:11.798Z,10.70
2023-03-05T11:25:53.690Z,9.15
2023-03-05T11:28:33.401Z,7.88
2023-03-05T11:31:20.253Z,7.25
2023-03-05T11:33:58.115Z,11.48
2023-03-05T11:36:32.737Z,9.40
2023-03-05T11:39:16.558Z,6.20
2023-03-05T11:41:51.395Z,7.53
2023-03-05T11:44:26.835Z,7.18
2023-03-05T11:47:03.154Z,5.97
2023-03-05T11:49:43.038Z,5.78
2023-03-05T11:52:21.713Z,6.82
2023-03-05T11:55:02.714Z,6.72
2023-03-05T11:57:43.268Z,6.20
2023-03-05T12:00:18.787Z,8.52
2023-03-05T12:02:54.490Z,8.60
2023-03-05T12:05:28.359Z,6.05
2023-03-05T12:08:02.203Z,6.20
2023-03-05T12:10:35.397Z,7.45
2023-03-05T12:13:19.494Z,7.20
2023-03-05T12:16:04.525Z,7.60
2023-03-05T12:18:47.846Z,6.07
2023-03-05T12:21:32.111Z,7.63
2023-03-05T12:24:36.058Z,6.03
2023-03-05T12:27:30.845Z,8.18
2023-03-05T12:30:04.715Z,5.95
2023-03-05T12:32:59.136Z,7.53
2023-03-05T12:35:36.432Z,5.75
2023-03-05T12:38:29.627Z,5.80
2023-03-05T12:41:43.304Z,6.22
2023-03-05T12:44:22.885Z,4.97
2023-03-05T12:47:18.585Z,8.68
2023-03-05T12:49:50.891Z,6.15
2023-03-05T12:52:26.682Z,7.30
2023-03-05T12:55:19.448Z,6.32
2023-03-05T12:57:57.099Z,5.78
2023-03-05T13:00:36.762Z,5.75
2023-03-05T13:05:49.471Z,6.40
2023-03-05T13:08:25.194Z,6.18
2023-03-05T13:11:01.463Z,5.43
2023-03-05T13:13:37.562Z,6.13
2023-03-05T13:16:17.961Z,6.32
2023-03-05T13:18:52.077Z,5.40
2023-03-05T13:21:26.349Z,5.32
2023-03-05T13:24:00.196Z,5.03
2023-03-05T13:26:38.610Z,6.13
2023-03-05T13:29:13.276Z,4.97
2023-03-05T13:31:48.345Z,4.00
2023-03-05T13:34:24.575Z,4.10
2023-03-05T13:37:00.827Z,5.97
2023-03-05T13:39:37.353Z,4.57
2023-03-05T13:42:17.138Z,4.15
2023-03-05T13:47:31.043Z,4.70
2023-03-05T13:50:05.795Z,5.80
2023-03-05T13:52:38.614Z,11.80
2023-03-05T13:55:15.756Z,7.25
2023-03-05T13:57:50.374Z,6.25
2023-03-05T14:00:30.577Z,5.75
2023-03-05T14:03:10.978Z,11.02
2023-03-05T14:05:44.360Z,5.57
2023-03-05T14:08:20.653Z,7.30
2023-03-05T14:10:54.292Z,7.40
2023-03-05T14:13:27.135Z,7.60
2023-03-05T14:16:04.574Z,6.35
2023-03-05T14:18:38.766Z,8.10
2023-03-05T14:21:11.918Z,6.03
2023-03-05T14:23:45.888Z,8.02
2023-03-05T14:26:23.629Z,6.38
2023-03-05T14:28:58.214Z,6.60
2023-03-05T14:31:34.933Z,8.05
2023-03-05T14:34:07.966Z,7.07
2023-03-05T14:36:47.688Z,6.72
2023-03-05T14:39:46.426Z,6.68
2023-03-05T14:42:31.501Z,7.55
2023-03-05T14:45:12.093Z,6.93
2023-03-05T14:47:45.110Z,5.78
2023-03-05T14:50:20.144Z,5.50
2023-03-05T14:52:55.848Z,6.68
2023-03-05T14:55:30.919Z,8.27
2023-03-05T14:58:06.968Z,6.95
2023-03-05T15:00:39.299Z,6.30
2023-03-05T15:03:11.845Z,6.63
2023-03-05T15:05:47.198Z,9.57
2023-03-05T15:08:22.422Z,6.80
2023-03-05T15:10:55.417Z,4.93
2023-03-05T15:13:27.708Z,9.55
2023-03-05T15:16:00.229Z,13.13
2023-03-05T15:18:32.763Z,7.63
2023-03-05T15:21:05.903Z,7.10
2023-03-05T15:23:38.298Z,8.07
2023-03-05T15:26:13.311Z,9.70
2023-03-05T15:28:45.646Z,11.80
2023-03-05T15:31:18.012Z,8.43
2023-03-05T15:33:50.314Z,12.40
2023-03-05T15:36:23.254Z,10.65
2023-03-05T15:38:55.677Z,7.53
2023-03-05T15:41:27.988Z,7.90
2023-03-05T15:44:00.300Z,7.80
2023-03-05T15:46:34.171Z,8.90
2023-03-05T15:49:06.484Z,6.90
2023-03-05T15:51:39.532Z,10.18
2023-03-05T15:54:11.811Z,9.48
2023-03-05T15:56:44.244Z,16.85
2023-03-05T15:59:16.525Z,11.15
2023-03-05T16:01:50.792Z,18.73
2023-03-05T16:04:23.165Z,18.73
2023-03-05T16:06:58.305Z,9.45
2023-03-05T16:09:36.354Z,7.65
2023-03-05T16:12:12.308Z,8.57
2023-03-05T16:14:45.794Z,9.23
2023-03-05T16:17:20.422Z,9.93
2023-03-05T16:19:55.437Z,6.78
2023-03-05T16:22:28.380Z,9.32
2023-03-05T16:25:00.971Z,7.68
2023-03-05T16:27:33.644Z,7.30
2023-03-05T16:30:07.259Z,8.25
2023-03-05T16:32:39.693Z,7.10
2023-03-05T16:35:12.758Z,8.13
2023-03-05T16:37:45.837Z,8.00
2023-03-05T16:40:18.337Z,6.45
2023-03-05T16:42:50.807Z,8.98
2023-03-05T16:45:23.136Z,8.75
2023-03-05T16:47:55.405Z,9.60
2023-03-05T16:50:27.717Z,9.20
2023-03-05T16:53:00.857Z,11.68
2023-03-05T16:55:33.261Z,7.00
2023-03-05T16:58:05.555Z,7.00
2023-03-05T17:00:37.994Z,8.45
2023-03-05T17:03:10.311Z,7.15
2023-03-05T17:05:42.607Z,7.82
2023-03-05T17:08:15.652Z,7.93
2023-03-05T17:10:48.178Z,8.18
2023-03-05T17:13:20.480Z,7.35
2023-03-05T17:15:56.169Z,6.65
2023-03-05T17:18:29.706Z,7.32
2023-03-05T17:21:03.751Z,8.48
2023-03-05T17:23:38.204Z,7.43
2023-03-05T17:26:12.794Z,8.82
2023-03-05T17:28:45.791Z,10.15
2023-03-05T17:31:18.137Z,9.43
2023-03-05T17:33:51.097Z,5.40
2023-03-05T17:36:23.836Z,5.93
2023-03-05T17:38:56.835Z,7.53
2023-03-05T17:41:29.225Z,6.03
2023-03-05T17:44:02.301Z,6.30
2023-03-05T17:46:34.616Z,7.15
2023-03-05T17:49:06.904Z,5.95
2023-03-05T17:51:39.268Z,6.43
2023-03-05T17:54:12.261Z,5.93
2023-03-05T17:56:44.531Z,6.43
2023-03-05T17:59:16.908Z,7.35
2023-03-05T18:01:49.228Z,5.95
2023-03-05T18:04:21.650Z,9.20
2023-03-05T18:06:53.989Z,6.95
2023-03-05T18:09:27.054Z,5.88
2023-03-05T18:11:59.439Z,7.28
2023-03-05T18:14:31.747Z,5.05
2023-03-05T18:17:04.114Z,6.53
2023-03-05T18:19:36.644Z,5.32
2023-03-05T18:22:09.030Z,5.68
2023-03-05T18:24:42.001Z,5.15
2023-03-05T18:27:14.774Z,4.90
2023-03-05T18:29:47.270Z,6.65
2023-03-05T18:32:20.242Z,5.88
2023-03-05T18:34:52.616Z,6.15
2023-03-05T18:37:24.940Z,6.75
2023-03-05T18:39:58.322Z,5.55
2023-03-05T18:42:30.784Z,7.18
2023-03-05T18:45:04.482Z,6.57
2023-03-05T18:47:38.386Z,8.93
2023-03-05T18:50:14.008Z,6.88
2023-03-05T18:52:47.203Z,8.52
2023-03-05T18:55:22.752Z,6.95
2023-03-05T18:57:55.484Z,7.60
2023-03-05T19:00:30.666Z,7.50
2023-03-05T19:03:03.257Z,6.45
2023-03-05T19:05:35.566Z,6.13
2023-03-05T19:08:08.085Z,7.45
2023-03-05T19:10:41.017Z,6.68
2023-03-05T19:13:25.035Z,6.55
2023-03-05T19:15:57.454Z,6.32
2023-03-05T19:18:33.038Z,6.88
2023-03-05T19:21:07.517Z,8.68
2023-03-05T19:23:39.874Z,6.35
2023-03-05T19:26:12.908Z,7.03
2023-03-05T19:28:45.212Z,5.25
2023-03-05T19:31:18.003Z,5.45
2023-03-05T19:33:50.308Z,5.93
2023-03-05T19:36:22.791Z,7.07
2023-03-05T19:38:55.152Z,8.00
2023-03-05T19:41:28.766Z,5.97
2023-03-05T19:44:01.698Z,6.15
2023-03-05T19:46:34.159Z,7.80
2023-03-05T19:49:06.513Z,7.28
2023-03-05T19:51:41.075Z,6.60
2023-03-05T19:54:15.219Z,8.15
2023-03-05T19:56:49.315Z,6.43
2023-03-05T19:59:22.423Z,6.28
2023-03-05T20:01:56.599Z,4.88
2023-03-05T20:04:28.967Z,6.60
2023-03-05T20:07:03.072Z,5.80
2023-03-05T20:09:35.363Z,8.00
2023-03-05T20:12:09.647Z,9.43
2023-03-05T20:14:41.950Z,7.40
2023-03-05T20:17:14.782Z,6.93
2023-03-05T20:19:47.108Z,6.53
2023-03-05T20:22:19.394Z,7.90
2023-03-05T20:24:51.672Z,8.02
2023-03-05T20:27:24.657Z,6.47
2023-03-05T20:29:57.956Z,5.32
2023-03-05T20:32:30.374Z,6.47
2023-03-05T20:35:03.026Z,6.57
2023-03-05T20:37:39.811Z,6.40
2023-03-05T20:40:13.098Z,6.43
2023-03-05T20:42:46.073Z,6.80
2023-03-05T20:45:18.776Z,6.63
2023-03-05T20:47:51.116Z,6.60
2023-03-05T20:50:23.704Z,6.72
2023-03-05T20:52:56.854Z,6.88
2023-03-05T20:55:29.676Z,5.43
2023-03-05T20:58:02.672Z,5.25
2023-03-05T21:00:35.699Z,7.55
2023-03-05T21:03:08.803Z,7.18
2023-03-05T21:05:41.094Z,10.57
2023-03-05T21:08:13.393Z,7.40
2023-03-05T21:10:45.651Z,8.25
2023-03-05T21:13:18.677Z,6.07
2023-03-05T21:15:51.019Z,7.72
2023-03-05T21:18:23.321Z,7.25
2023-03-05T21:20:55.656Z,7.72
2023-03-05T21:23:28.151Z,6.30
2023-03-05T21:26:01.246Z,7.13
2023-03-05T21:28:34.291Z,8.10
2023-03-05T21:31:08.784Z,6.82
2023-03-05T21:33:41.641Z,6.60
2023-03-05T21:36:17.841Z,5.47
2023-03-05T21:38:50.151Z,5.53
2023-03-05T21:41:23.050Z,8.25
2023-03-05T21:43:56.727Z,7.15
2023-03-05T21:46:29.349Z,6.82
2023-03-05T21:49:01.848Z,6.40
2023-03-05T21:51:41.279Z,6.25
2023-03-05T21:54:13.571Z,4.97
2023-03-05T21:56:45.972Z,6.05
2023-03-05T21:59:18.916Z,6.15
2023-03-05T22:01:52.569Z,7.38
2023-03-05T22:04:25.181Z,5.78
2023-03-05T22:06:57.431Z,5.63
2023-03-05T22:09:29.698Z,5.63
2023-03-05T22:12:04.060Z,6.35
2023-03-05T22:14:37.036Z,7.43
2023-03-05T22:17:09.374Z,6.93
2023-03-05T22:19:41.624Z,7.55
2023-03-05T22:22:13.916Z,7.20
2023-03-05T22:24:46.197Z,6.20
2023-03-05T22:27:18.514Z,7.00
2023-03-05T22:29:51.509Z,6.30
2023-03-05T22:32:23.907Z,7.45
2023-03-05T22:34:56.394Z,5.60
2023-03-05T22:37:29.161Z,5.93
2023-03-05T22:40:01.788Z,6.75
2023-03-05T22:42:34.174Z,7.55
2023-03-05T22:45:08.455Z,8.10
2023-03-05T22:47:41.121Z,7.65
2023-03-05T22:50:13.620Z,15.57
2023-03-05T22:52:46.344Z,11.18
2023-03-05T22:55:18.679Z,10.75
2023-03-05T22:57:50.952Z,9.50
2023-03-05T23:00:25.964Z,10.60
2023-03-05T23:02:58.370Z,15.30
2023-03-05T23:05:30.707Z,12.15
2023-03-05T23:08:03.068Z,15.73
2023-03-05T23:10:35.603Z,14.90
2023-03-05T23:13:07.929Z,14.40
2023-03-05T23:15:40.857Z,12.07
2023-03-05T23:18:14.314Z,14.70
2023-03-05T23:20:46.662Z,15.43
2023-03-05T23:23:18.995Z,14.85
2023-03-05T23:25:52.102Z,15.38
2023-03-05T23:28:24.399Z,14.68
2023-03-05T23:30:58.116Z,11.45
2023-03-05T23:33:30.476Z,9.13
2023-03-05T23:36:02.935Z,9.23
2023-03-05T23:38:35.928Z,6.13
2023-03-05T23:41:09.209Z,6.82
2023-03-05T23:43:41.497Z,6.65
2023-03-05T23:46:14.573Z,7.20
2023-03-05T23:48:47.009Z,7.35
2023-03-05T23:51:19.322Z,6.22
2023-03-05T23:53:51.744Z,6.10
2023-03-05T23:56:24.050Z,7.50
2023-03-05T23:58:59.745Z,7.35
